Time;durP1;ratioP1;P1;durP2;ratioP2;P2;SDS_P1;SDS_P2;PMS_P1;PMS_P2;Temp;Humidity;BMP_temperature;BMP_pressure;BME280_temperature;BME280_humidity;BME280_pressure;Samples;Min_cycle;Max_cycle;Signal;HPM_P1;HPM_P2
2021/09/08 01:08:41;;;;;;;;;47.33;41.00;;;;;23.45;39.71;101041.38;6223673;22;46466;31
2021/09/08 01:44:45;;;;;;;;;36.25;33.00;;;;;22.73;41.19;100972.28;6297199;22;44825;-96
2021/09/08 01:47:12;;;;;;;;;25.00;25.00;;;;;22.85;40.86;100989.06;6245727;22;44693;-96
2021/09/08 01:49:43;;;;;;;;;22.50;20.75;;;;;22.81;41.25;100985.84;6270239;22;45070;-95
2021/09/08 01:52:13;;;;;;;;;27.50;25.50;;;;;22.98;41.20;101009.41;6272123;22;44727;-96
2021/09/08 01:54:39;;;;;;;;;38.20;33.80;;;;;22.54;41.32;100946.28;6182338;22;44852;-88
2021/09/08 01:57:05;;;;;;;;;24.00;24.00;;;;;22.59;41.41;100960.22;6253038;22;44734;-87
2021/09/08 01:59:30;;;;;;;;;35.00;32.50;;;;;22.81;41.52;100985.84;6225843;22;46513;-87
2021/09/08 02:01:56;;;;;;;;;24.50;22.25;;;;;22.68;41.38;100961.94;6253076;22;44715;-89
2021/09/08 02:04:21;;;;;;;;;21.00;19.25;;;;;22.52;41.64;100930.19;6278796;22;44757;-89
2021/09/08 02:06:48;;;;;;;;;25.75;24.00;;;;;22.63;41.84;100945.31;6254615;22;44793;-88
2021/09/08 02:09:14;;;;;;;;;16.50;16.50;;;;;22.54;41.88;100938.16;6254667;22;45180;-88
2021/09/08 02:11:39;;;;;;;;;34.50;32.00;;;;;22.70;41.72;100967.19;6253837;22;44774;-87
2021/09/08 02:14:05;;;;;;;;;33.75;32.00;;;;;22.54;41.62;100941.72;6254347;22;44971;-87
2021/09/08 02:16:30;;;;;;;;;35.00;32.25;;;;;22.82;41.92;100978.56;6254751;22;44807;-88
2021/09/08 02:18:56;;;;;;;;;30.75;30.00;;;;;22.47;41.87;100923.56;6253135;22;44957;-88
2021/09/08 02:21:21;;;;;;;;;31.75;30.25;;;;;22.76;42.35;100971.94;6254362;22;44782;-89
2021/09/08 02:23:46;;;;;;;;;;;;;;;22.76;42.37;100977.38;6257556;22;44690;-87
2021/09/08 02:26:12;;;;;;;;;38.50;33.50;;;;;22.55;42.33;100940.69;6306874;22;44756;-90
2021/09/08 02:28:37;;;;;;;;;20.25;19.75;;;;;22.60;42.48;100955.63;6229303;22;44978;-90
2021/09/08 02:31:03;;;;;;;;;25.25;22.50;;;;;22.52;42.53;100942.91;6255035;22;44710;-90
2021/09/08 02:33:28;;;;;;;;;20.00;20.00;;;;;22.67;42.33;100971.06;6229840;22;44861;-89
2021/09/08 02:35:54;;;;;;;;;23.00;21.25;;;;;22.48;42.82;100949.66;6229312;22;44889;-88
2021/09/08 02:38:19;;;;;;;;;22.25;22.25;;;;;22.37;43.03;100919.16;6256616;22;45360;-89
2021/09/08 02:40:45;;;;;;;;;25.50;24.75;;;;;22.40;42.71;100926.94;6257001;22;44645;-89
2021/09/08 02:43:10;;;;;;;;;34.00;32.00;;;;;22.59;43.07;100956.66;6258659;22;50191;-88
2021/09/08 02:45:36;;;;;;;;;25.75;24.00;;;;;22.49;43.25;100937.81;6234598;22;44874;-88
2021/09/08 02:48:01;;;;;;;;;31.25;29.00;;;;;22.56;43.04;100946.97;6236232;22;45173;-87
2021/09/08 02:50:27;;;;;;;;;22.00;22.00;;;;;22.36;43.66;100924.72;6235184;22;44786;-86
2021/09/08 02:52:52;;;;;;;;;30.75;29.50;;;;;22.54;43.35;100957.97;6259388;22;45016;-88
2021/09/08 02:55:18;;;;;;;;;29.50;25.75;;;;;22.17;43.79;100905.03;6215698;22;52566;-87
2021/09/08 02:57:43;;;;;;;;;39.00;33.00;;;;;22.39;43.33;100933.38;6249493;22;45016;-89
2021/09/08 03:00:09;;;;;;;;;26.50;26.50;;;;;22.37;43.42;100937.25;6227068;22;44820;-89
2021/09/08 03:02:35;;;;;;;;;35.75;33.00;;;;;22.18;43.58;100904.88;6224937;22;44755;-89
2021/09/08 03:05:00;;;;;;;;;33.25;30.25;;;;;22.15;43.90;100899.78;6202211;22;44733;-89
2021/09/08 03:07:25;;;;;;;;;28.00;27.75;;;;;22.38;44.01;100939.81;6281775;22;45126;-88
2021/09/08 03:09:51;;;;;;;;;23.50;21.75;;;;;22.24;44.25;100916.91;6229532;22;44714;-89
2021/09/08 03:12:16;;;;;;;;;33.50;30.75;;;;;22.37;44.32;100939.97;6231316;22;44882;-86
2021/09/08 03:14:42;;;;;;;;;33.75;31.00;;;;;22.03;44.30;100885.69;6251793;22;44902;-87
2021/09/08 03:17:08;;;;;;;;;28.75;26.00;;;;;22.29;44.53;100924.53;6199298;22;44906;-88
2021/09/08 03:19:35;;;;;;;;;21.25;21.25;;;;;22.17;44.60;100910.44;6252027;22;44739;-86
2021/09/08 03:22:00;;;;;;;;;36.75;33.25;;;;;22.11;44.28;100895.72;6235202;22;44714;-87
2021/09/08 03:24:26;;;;;;;;;31.25;30.00;;;;;22.10;44.37;100898.59;6236902;22;44859;-88
2021/09/08 03:26:51;;;;;;;;;36.75;33.25;;;;;21.79;44.55;100841.28;6234977;22;44865;-87
2021/09/08 03:29:16;;;;;;;;;37.75;32.75;;;;;21.79;44.87;100856.66;6234363;22;44772;-89
2021/09/08 03:31:42;;;;;;;;;27.25;27.25;;;;;22.18;45.05;100923.84;6232572;22;45089;-87
2021/09/08 03:34:07;;;;;;;;;28.25;28.25;;;;;21.93;44.82;100883.13;6203321;22;44832;-88
2021/09/08 03:36:33;;;;;;;;;34.00;31.50;;;;;21.88;45.22;100868.38;6226671;22;44844;-88
2021/09/08 03:38:58;;;;;;;;;44.50;38.25;;;;;21.99;45.02;100895.16;6198345;22;44809;-88
2021/09/08 03:41:24;;;;;;;;;27.00;25.25;;;;;22.11;45.18;100898.41;6197106;22;45051;-90
2021/09/08 03:43:49;;;;;;;;;32.50;29.25;;;;;21.90;45.35;100878.03;6224864;22;44832;-89
2021/09/08 03:46:15;;;;;;;;;29.25;27.75;;;;;22.11;45.18;100905.69;6198791;22;45007;-89
2021/09/08 03:48:40;;;;;;;;;35.00;30.50;;;;;21.86;45.31;100864.97;6223693;22;51418;-88
2021/09/08 03:51:05;;;;;;;;;36.50;32.75;;;;;21.93;45.25;100883.13;6252006;22;44950;-89
2021/09/08 03:53:31;;;;;;;;;39.50;35.00;;;;;21.94;45.77;100875.81;6222921;22;44767;-89
2021/09/08 03:55:56;;;;;;;;;20.75;17.25;;;;;21.65;45.67;100825.63;6243537;22;45131;-89
2021/09/08 03:58:22;;;;;;;;;35.75;31.50;;;;;21.66;46.07;100835.44;6254326;22;44742;-89
2021/09/08 04:00:47;;;;;;;;;34.50;32.50;;;;;21.91;45.58;100877.00;6229775;22;44714;-88
2021/09/08 04:03:13;;;;;;;;;42.25;37.25;;;;;21.55;46.04;100825.72;6231448;22;44904;-90
2021/09/08 04:05:38;;;;;;;;;41.75;34.00;;;;;21.86;45.92;100873.09;6254229;22;44997;-89
2021/09/08 04:08:04;;;;;;;;;36.25;33.75;;;;;21.47;45.92;100809.47;6280141;22;44639;-89
2021/09/08 04:10:30;;;;;;;;;25.25;25.25;;;;;21.74;46.06;100851.72;6229096;22;44916;-88
2021/09/08 04:12:55;;;;;;;;;33.25;31.00;;;;;21.48;46.25;100817.44;6253865;22;44614;-88
2021/09/08 04:15:21;;;;;;;;;19.50;19.50;;;;;21.66;46.20;100844.38;6253212;22;44889;-89
2021/09/08 04:17:46;;;;;;;;;29.75;29.75;;;;;21.37;46.49;100807.75;6280539;22;44757;-90
2021/09/08 04:20:12;;;;;;;;;46.25;38.25;;;;;21.67;46.61;100851.50;6229051;22;44678;-90
2021/09/08 04:22:37;;;;;;;;;45.25;37.00;;;;;21.48;46.97;100821.97;6228984;22;45203;-91
2021/09/08 04:25:03;;;;;;;;;35.25;32.75;;;;;21.68;46.29;100865.88;6228345;22;45142;-89
2021/09/08 04:27:29;;;;;;;;;39.25;34.25;;;;;21.37;46.65;100821.28;6228424;22;44859;-88
2021/09/08 04:29:54;;;;;;;;;29.25;29.25;;;;;21.21;47.05;100789.56;6226100;22;44716;-89
2021/09/08 04:32:20;;;;;;;;;29.00;28.50;;;;;21.27;47.01;100796.19;6280006;22;44725;-90
2021/09/08 04:34:45;;;;;;;;;32.00;29.50;;;;;21.60;46.89;100855.88;6228491;22;44985;-89
2021/09/08 04:37:10;;;;;;;;;37.75;32.50;;;;;21.35;47.12;100812.47;6228452;22;44807;-88
2021/09/08 04:39:36;;;;;;;;;21.75;20.25;;;;;21.53;46.86;100847.53;6228443;22;44762;-88
2021/09/08 04:42:01;;;;;;;;;41.00;36.25;;;;;21.37;47.20;100818.56;6228977;22;44818;-89
2021/09/08 04:44:27;;;;;;;;;46.00;39.00;;;;;21.55;47.07;100852.78;6228086;22;45307;-89
2021/09/08 04:46:52;;;;;;;;;48.25;39.25;;;;;21.14;47.23;100789.34;6256113;22;44696;-86
2021/09/08 04:49:18;;;;;;;;;34.50;32.75;;;;;21.38;46.57;100830.22;6232571;22;44730;-89
2021/09/08 04:51:43;;;;;;;;;35.75;32.75;;;;;21.47;47.54;100850.03;6264854;22;44732;-89
2021/09/08 04:54:09;;;;;;;;;38.25;33.25;;;;;21.25;47.37;100819.81;6241491;22;45182;-89
2021/09/08 04:56:36;;;;;;;;;33.00;31.25;;;;;21.37;47.71;100850.16;6262891;22;44627;-88
2021/09/08 04:59:01;;;;;;;;;35.25;32.25;;;;;21.44;47.95;100863.88;6237457;22;44592;-89
2021/09/08 05:01:27;;;;;;;;;35.25;32.75;;;;;21.14;47.60;100827.19;6246631;22;44730;-90
2021/09/08 05:03:52;;;;;;;;;30.75;29.75;;;;;21.10;47.90;100816.88;6277361;22;45297;-89
2021/09/08 05:06:18;;;;;;;;;41.25;36.50;;;;;21.40;47.66;100858.78;6251875;22;44759;-89
2021/09/08 05:08:45;;;;;;;;;31.50;30.75;;;;;21.22;48.04;100833.66;6251230;22;44733;-88
2021/09/08 05:11:10;;;;;;;;;27.75;25.00;;;;;21.36;48.06;100851.19;6278057;22;44808;-88
2021/09/08 05:13:36;;;;;;;;;39.00;34.00;;;;;21.26;47.61;100838.59;6245175;22;44974;-88
2021/09/08 05:16:01;;;;;;;;;27.25;24.50;;;;;21.14;48.26;100816.38;6253705;22;44811;-89
2021/09/08 05:18:27;;;;;;;;;43.25;37.00;;;;;21.40;48.28;100858.78;6253032;22;44779;-90
2021/09/08 05:20:52;;;;;;;;;29.75;29.75;;;;;21.11;47.66;100808.56;6227516;22;44762;-88
2021/09/08 05:23:18;;;;;;;;;25.50;25.50;;;;;21.14;47.82;100821.78;6226911;22;44995;-87
2021/09/08 05:25:43;;;;;;;;;40.75;35.75;;;;;21.13;48.33;100814.69;6253186;22;44596;-89
2021/09/08 05:28:09;;;;;;;;;30.25;28.50;;;;;21.17;48.37;100820.63;6230328;22;44640;-89
2021/09/08 05:30:34;;;;;;;;;29.00;26.00;;;;;21.14;47.69;100813.66;6230876;22;44870;-88
2021/09/08 05:33:00;;;;;;;;;47.75;39.25;;;;;21.26;48.25;100832.31;6227826;22;45172;-88
2021/09/08 05:35:25;;;;;;;;;43.75;36.50;;;;;21.04;47.66;100805.66;6226554;22;44643;-90
2021/09/08 05:37:51;;;;;;;;;38.75;33.25;;;;;21.17;47.87;100810.66;6231593;22;44871;-90
2021/09/08 05:40:16;;;;;;;;;42.25;35.50;;;;;21.44;48.07;100864.75;6234016;22;44841;-90
2021/09/08 05:42:42;;;;;;;;;37.25;33.00;;;;;21.07;48.02;100793.69;6262584;22;44987;-91
2021/09/08 05:45:08;;;;;;;;;36.75;33.25;;;;;21.15;48.28;100807.28;6291659;22;44961;-91
2021/09/08 05:47:33;;;;;;;;;38.75;34.25;;;;;21.36;48.22;100834.94;6241304;22;44729;-90
2021/09/08 05:49:59;;;;;;;;;42.00;36.25;;;;;21.15;47.94;100792.91;6270628;22;44754;-91
2021/09/08 05:52:25;;;;;;;;;41.25;34.25;;;;;21.56;48.45;100857.22;6246351;22;45317;-88
2021/09/08 05:54:50;;;;;;;;;43.25;38.00;;;;;21.52;48.16;100847.72;6251182;22;44754;-91
2021/09/08 05:57:16;;;;;;;;;41.75;36.50;;;;;21.60;48.32;100852.31;6254496;22;44706;-88
2021/09/08 05:59:41;;;;;;;;;47.75;40.25;;;;;21.62;48.38;100859.25;6238984;22;44895;-86
2021/09/08 06:02:07;;;;;;;;;48.00;39.75;;;;;21.45;48.18;100825.03;6268497;22;44977;-91
2021/09/08 06:04:33;;;;;;;;;46.00;39.75;;;;;21.52;48.09;100826.91;6265176;22;44795;-90
2021/09/08 06:07:02;;;;;;;;;35.50;33.25;;;;;21.27;48.31;100783.50;6280261;22;44590;-95
2021/09/08 06:09:30;;;;;;;;;48.00;40.00;;;;;21.47;47.89;100810.31;6265023;22;44952;-91
2021/09/08 06:11:56;;;;;;;;;44.25;37.75;;;;;21.76;48.06;100855.13;6239665;22;45257;-90
2021/09/08 06:14:22;;;;;;;;;47.50;40.25;;;;;21.65;47.71;100822.94;6243984;22;44817;-89
2021/09/08 06:16:50;;;;;;;;;44.50;35.50;;;;;21.54;47.72;100811.38;6273507;22;44621;-93
2021/09/08 06:19:16;;;;;;;;;28.00;26.00;;;;;21.49;48.32;100796.66;6248231;22;44771;-93
2021/09/08 06:21:41;;;;;;;;;44.50;38.25;;;;;21.48;47.47;100792.22;6244112;22;45043;-92
2021/09/08 06:24:20;;;;;;;;;;;;;;;;;;;;;
2021/09/08 06:26:46;;;;;;;;;42.00;35.25;;;;;21.89;47.63;100846.56;6275754;22;68117;-89
2021/09/08 06:29:13;;;;;;;;;39.75;34.50;;;;;21.74;47.70;100803.03;6269739;22;44801;-89
2021/09/08 06:31:38;;;;;;;;;36.25;31.50;;;;;21.75;47.56;100812.00;6273716;22;45557;-89
2021/09/08 06:34:04;;;;;;;;;37.50;32.00;;;;;21.98;47.50;100843.88;6268515;22;44573;-90
2021/09/08 06:36:29;;;;;;;;;39.75;35.75;;;;;22.04;47.73;100844.06;6237034;22;44704;-89
2021/09/08 06:38:55;;;;;;;;;40.50;35.50;;;;;21.63;47.24;100771.69;6242684;22;45009;-91
2021/09/08 06:41:20;;;;;;;;;44.33;36.33;;;;;21.84;47.42;100799.34;6263731;22;45166;-90
2021/09/08 06:43:49;;;;;;;;;44.25;38.00;;;;;22.15;47.40;100842.06;6244408;22;44721;-90
2021/09/08 06:46:16;;;;;;;;;26.50;23.75;;;;;22.08;47.45;100812.09;6250728;22;44746;-90
2021/09/08 06:48:42;;;;;;;;;45.25;38.75;;;;;21.94;46.88;100775.69;6275931;22;44757;-91
2021/09/08 06:51:07;;;;;;;;;39.75;33.00;;;;;22.00;47.69;100780.44;6273238;22;45126;-91
2021/09/08 06:53:34;;;;;;;;;45.25;39.00;;;;;22.25;47.52;100813.00;6245280;22;44732;-90
2021/09/08 06:56:00;;;;;;;;;42.25;36.50;;;;;22.18;47.27;100793.00;6244001;22;44705;-90
2021/09/08 06:58:26;;;;;;;;;46.75;39.50;;;;;22.22;47.08;100791.66;6244055;22;44922;-90
2021/09/08 07:00:51;;;;;;;;;46.75;39.75;;;;;22.30;47.09;100807.09;6275791;22;45097;-89
2021/09/08 07:03:19;;;;;;;;;48.50;40.75;;;;;22.53;47.08;100839.78;6274335;22;44971;-91
2021/09/08 07:05:46;;;;;;;;;21.25;21.25;;;;;22.58;47.25;100838.47;6245906;22;44753;-91
2021/09/08 07:08:15;;;;;;;;;41.00;36.00;;;;;22.59;47.31;100819.34;6245573;22;44890;-89
2021/09/08 07:10:41;;;;;;;;;50.00;42.50;;;;;22.59;46.72;100808.50;6248418;22;45053;-90
2021/09/08 07:13:06;;;;;;;;;39.00;34.75;;;;;22.75;46.88;100823.91;6248378;22;44552;-91
2021/09/08 07:15:33;;;;;;;;;42.50;36.00;;;;;22.42;46.76;100761.56;6246879;22;44591;-90
2021/09/08 07:17:59;;;;;;;;;36.25;33.00;;;;;22.76;46.45;100812.03;6245172;22;44749;-89
2021/09/08 07:20:24;;;;;;;;;34.25;32.50;;;;;22.70;46.94;100772.06;6234209;22;45009;-91
2021/09/08 07:22:50;;;;;;;;;45.50;39.25;;;;;22.79;46.42;100787.31;6233476;22;44757;-89
2021/09/08 07:25:15;;;;;;;;;41.75;36.25;;;;;22.81;46.48;100776.31;6233030;22;44710;-91
2021/09/08 07:27:41;;;;;;;;;32.50;29.75;;;;;23.00;46.06;100799.47;6233394;22;44786;-90
2021/09/08 07:30:07;;;;;;;;;43.00;37.25;;;;;22.85;46.42;100771.38;6259818;22;44911;-89
2021/09/08 07:32:44;;;;;;;;;47.50;39.50;;;;;22.87;46.39;100762.06;6262451;22;44754;-90
2021/09/08 07:35:10;;;;;;;;;28.25;25.75;;;;;23.13;46.12;100789.97;6240321;22;44619;-91
2021/09/08 07:37:37;;;;;;;;;50.00;42.40;;;;;23.28;46.14;100796.38;6267461;22;44835;-90
2021/09/08 07:40:06;;;;;;;;;53.60;45.80;;;;;23.36;46.04;100797.41;6239429;22;45210;-90
2021/09/08 07:42:32;;;;;;;;;53.20;45.20;;;;;23.54;46.06;100805.31;6262130;22;44824;-91
2021/09/08 07:44:57;;;;;;;;;48.80;41.80;;;;;23.30;46.03;100758.22;6233326;22;44733;-91
2021/09/08 07:47:23;;;;;;;;;61.40;52.00;;;;;23.38;45.73;100762.81;6230733;22;44810;-90
2021/09/08 07:49:48;;;;;;;;;60.20;51.60;;;;;23.46;45.95;100773.63;6229941;22;46610;-90
2021/09/08 07:52:14;;;;;;;;;88.20;85.00;;;;;23.66;45.78;100794.91;6229147;22;44696;-91
2021/09/08 07:54:39;;;;;;;;;89.40;86.40;;;;;23.73;45.35;100793.19;6229200;22;44725;-91
2021/09/08 07:57:05;;;;;;;;;96.17;93.50;;;;;23.43;45.19;100739.56;6229599;22;44778;-89
2021/09/08 07:59:33;;;;;;;;;87.00;84.00;;;;;23.71;45.31;100787.09;6229088;22;45251;-90
2021/09/08 08:01:58;;;;;;;;;83.33;79.83;;;;;23.84;45.92;100806.34;6255322;22;44977;-90
2021/09/08 08:04:24;;;;;;;;;85.80;83.00;;;;;23.74;45.33;100778.59;6230341;22;44759;-90
2021/09/08 08:06:49;;;;;;;;;86.20;81.80;;;;;23.61;45.38;100753.91;6229811;22;44754;-91
2021/09/08 08:09:15;;;;;;;;;85.17;81.17;;;;;23.71;45.20;100758.06;6255377;22;44941;-90
2021/09/08 08:11:43;;;;;;;;;79.60;74.20;;;;;23.88;45.39;100771.56;6234440;22;44737;-90
2021/09/08 08:14:08;;;;;;;;;83.83;78.00;;;;;23.90;45.15;100772.22;6240213;22;44692;-90
2021/09/08 08:16:34;;;;;;;;;116.00;114.50;;;;;23.95;45.57;100779.84;6266601;22;44657;-90
2021/09/08 08:19:00;;;;;;;;;112.50;111.25;;;;;24.04;45.40;100786.06;6238210;22;45029;-90
2021/09/08 08:21:26;;;;;;;;;106.00;105.50;;;;;23.96;45.27;100767.94;6249386;22;44612;-90
2021/09/08 08:23:53;;;;;;;;;112.25;108.75;;;;;24.06;45.38;100770.47;6277615;22;44685;-89
2021/09/08 08:26:21;;;;;;;;;89.00;85.50;;;;;24.28;44.72;100795.13;6251211;22;44961;-90
2021/09/08 08:28:46;;;;;;;;;108.50;108.50;;;;;24.26;45.30;100783.59;6242481;22;46698;-91
2021/09/08 08:31:12;;;;;;;;;104.50;103.00;;;;;24.37;44.96;100799.47;6234755;22;44727;-91
2021/09/08 08:33:37;;;;;;;;;99.75;98.50;;;;;24.14;45.48;100748.69;6232711;22;44744;-90
2021/09/08 08:36:03;;;;;;;;;112.00;111.25;;;;;24.33;44.83;100779.13;6232335;22;44778;-91
2021/09/08 08:38:28;;;;;;;;;112.25;111.25;;;;;24.36;45.31;100769.75;6258202;22;45008;-90
2021/09/08 08:40:54;;;;;;;;;104.00;102.00;;;;;24.47;44.74;100783.75;6257661;22;44706;-90
2021/09/08 08:43:22;;;;;;;;;120.00;120.00;;;;;24.56;44.98;100794.56;6258737;22;44666;-89
2021/09/08 08:45:48;;;;;;;;;108.80;108.80;;;;;24.30;44.60;100736.00;6231051;22;44762;-91
2021/09/08 08:48:14;;;;;;;;;105.60;105.00;;;;;24.36;45.49;100743.44;6229541;22;44976;-91
2021/09/08 08:50:40;;;;;;;;;112.25;111.50;;;;;24.44;45.00;100743.38;6255453;22;44843;-91
2021/09/08 08:53:05;;;;;;;;;121.60;120.80;;;;;24.72;44.64;100785.44;6282102;22;44820;-90
2021/09/08 08:55:31;;;;;;;;;98.00;98.00;;;;;24.80;45.14;100773.63;6230583;22;44821;-89
2021/09/08 08:57:58;;;;;;;;;115.25;113.75;;;;;24.47;45.06;100714.97;6261805;22;44940;-89
2021/09/08 09:00:24;;;;;;;;;120.60;119.60;;;;;24.81;45.17;100767.16;6236906;22;44620;-90
2021/09/08 09:02:51;;;;;;;;;114.40;114.40;;;;;24.76;45.26;100748.69;6262672;22;44602;-91
2021/09/08 09:05:37;;;;;;;;;108.80;108.00;;;;;24.63;44.95;100715.88;6231754;22;44975;-90
2021/09/08 09:08:04;;;;;;;;;128.60;128.60;;;;;24.74;44.46;100729.00;6231312;22;45131;-91
2021/09/08 09:10:29;;;;;;;;;123.80;123.80;;;;;24.67;45.29;100714.47;6256328;22;44744;-89
2021/09/08 09:12:55;;;;;;;;;118.00;116.40;;;;;24.89;44.97;100747.25;6231610;22;44740;-90
2021/09/08 09:15:21;;;;;;;;;99.00;99.00;;;;;24.89;45.35;100728.22;6236913;22;44783;-91
2021/09/08 09:17:47;;;;;;;;;119.00;119.00;;;;;24.96;45.25;100737.31;6236600;22;45073;-91
2021/09/08 09:20:15;;;;;;;;;116.80;116.80;;;;;24.84;44.70;100698.84;6231350;22;44698;-91
2021/09/08 09:22:45;;;;;;;;;129.00;127.00;;;;;25.20;45.35;100755.22;6230151;22;44735;-91
2021/09/08 09:25:12;;;;;;;;;125.60;124.20;;;;;24.90;44.61;100695.41;6254827;22;44953;-90
2021/09/08 09:27:42;;;;;;;;;116.20;115.60;;;;;25.21;44.88;100735.16;6229954;22;45042;-90
2021/09/08 09:30:10;;;;;;;;;114.80;114.80;;;;;25.35;44.79;100752.50;6231520;22;44757;-89
2021/09/08 09:32:40;;;;;;;;;123.80;123.40;;;;;25.29;44.81;100731.50;6261280;22;44738;-91
2021/09/08 09:35:07;;;;;;;;;106.20;104.80;;;;;25.29;44.93;100727.91;6244540;22;44935;-91
2021/09/08 09:37:33;;;;;;;;;123.60;122.40;;;;;25.23;44.99;100724.09;6272006;22;45180;-90
2021/09/08 09:40:03;;;;;;;;;117.00;117.00;;;;;25.40;45.08;100757.38;6244194;22;44691;-90
2021/09/08 09:42:31;;;;;;;;;120.00;118.20;;;;;25.42;44.61;100752.59;6241053;22;44585;-90
2021/09/08 09:45:03;;;;;;;;;127.80;126.20;;;;;25.25;44.79;100702.13;6238681;22;44897;-91
2021/09/08 09:47:28;;;;;;;;;118.20;116.40;;;;;25.29;45.37;100690.69;6236185;22;46783;-91
2021/09/08 09:49:55;;;;;;;;;119.00;119.00;;;;;25.54;44.88;100723.00;6232404;22;44646;-91
2021/09/08 09:52:23;;;;;;;;;113.75;113.75;;;;;25.46;45.04;100701.34;6233625;22;44599;-90
2021/09/08 09:54:49;;;;;;;;;128.40;126.60;;;;;25.57;44.46;100719.06;6285004;22;44777;-90
2021/09/08 09:57:14;;;;;;;;;115.80;115.80;;;;;25.79;45.03;100741.75;6233202;22;45015;-91
2021/09/08 09:59:40;;;;;;;;;125.25;124.25;;;;;25.76;44.74;100727.69;6233861;22;44846;-92
2021/09/08 10:02:05;;;;;;;;;127.80;127.80;;;;;25.68;44.15;100709.56;6234617;22;44737;-89
2021/09/08 10:04:31;;;;;;;;;119.75;118.75;;;;;25.71;44.94;100703.75;6260190;22;44734;-91
2021/09/08 10:06:56;;;;;;;;;118.80;117.60;;;;;25.73;44.54;100704.41;6236035;22;44985;-90
2021/09/08 10:09:22;;;;;;;;;132.60;131.80;;;;;25.93;44.73;100726.41;6231950;22;44722;-91
2021/09/08 10:11:49;;;;;;;;;123.80;123.60;;;;;25.86;44.13;100707.25;6229446;22;44816;-90
2021/09/08 10:14:25;;;;;;;;;126.40;125.00;;;;;25.91;44.44;100711.28;6232131;22;44726;-91
2021/09/08 10:16:50;;;;;;;;;120.80;120.80;;;;;26.07;44.67;100745.59;6230808;22;47439;-91
2021/09/08 10:19:17;;;;;;;;;125.40;124.20;;;;;26.09;44.71;100733.47;6228207;22;45206;-90
2021/09/08 10:21:46;;;;;;;;;124.00;124.00;;;;;25.99;44.85;100703.00;6227920;22;44782;-90
2021/09/08 10:24:11;;;;;;;;;126.80;126.80;;;;;26.06;44.21;100698.47;6227383;22;44782;-90
2021/09/08 10:26:37;;;;;;;;;126.60;125.20;;;;;26.06;44.40;100692.16;6227743;22;45258;-90
2021/09/08 10:29:06;;;;;;;;;108.50;108.50;;;;;26.35;44.13;100723.06;6228722;22;44818;-90
2021/09/08 10:31:43;;;;;;;;;119.00;119.00;;;;;26.29;44.44;100712.94;6229326;22;44628;-90
2021/09/08 10:34:11;;;;;;;;;120.40;119.40;;;;;26.47;44.00;100726.09;6231184;22;44804;-91
2021/09/08 10:36:40;;;;;;;;;135.80;133.80;;;;;26.20;44.25;100663.16;6232649;22;46706;-92
2021/09/08 10:39:23;;;;;;;;;124.20;123.60;;;;;26.25;44.17;100661.50;6258047;22;44752;-90
2021/09/08 10:41:50;;;;;;;;;123.40;123.40;;;;;26.50;44.04;100693.81;6229470;22;44594;-90
2021/09/08 10:44:18;;;;;;;;;129.00;127.80;;;;;26.70;43.69;100709.50;6229056;22;44829;-91
2021/09/08 10:46:47;;;;;;;;;131.40;131.40;;;;;26.82;44.06;100714.41;6255347;22;45318;-91
2021/09/08 10:49:41;;;;;;;;;123.60;123.60;;;;;26.69;43.66;100691.44;6283634;22;44684;-90
2021/09/08 10:52:25;;;;;;;;;117.20;115.60;;;;;26.85;43.88;100706.63;6283601;22;44770;-90
2021/09/08 10:54:56;;;;;;;;;117.80;117.80;;;;;26.92;43.55;100722.22;6283998;22;44916;-90
2021/09/08 10:57:46;;;;;;;;;125.40;125.20;;;;;26.69;43.82;100672.34;6287763;22;45198;-87
2021/09/08 11:00:36;;;;;;;;;119.00;119.00;;;;;26.93;43.66;100699.34;6278780;22;44744;-90
2021/09/08 11:03:02;;;;;;;;;136.00;134.60;;;;;26.87;43.57;100677.28;6246765;22;44643;-89
2021/09/08 11:05:27;;;;;;;;;124.20;123.40;;;;;26.82;43.68;100659.84;6238819;22;44821;-89
2021/09/08 11:07:53;;;;;;;;;136.20;135.40;;;;;26.94;43.51;100651.91;6238347;22;46833;-91
2021/09/08 11:10:29;;;;;;;;;139.75;139.25;;;;;27.12;43.29;100687.75;6234845;22;44819;-89
2021/09/08 11:13:01;;;;;;;;;131.60;130.40;;;;;27.01;43.02;100664.59;6233995;22;44725;-91
2021/09/08 11:15:32;;;;;;;;;125.25;125.00;;;;;27.25;43.54;100692.41;6258709;22;44749;-92
2021/09/08 11:17:57;;;;;;;;;128.67;127.83;;;;;27.24;43.15;100678.97;6257529;22;45290;-91
2021/09/08 11:20:23;;;;;;;;;135.00;133.50;;;;;27.35;43.51;100685.72;6257835;22;44740;-91
2021/09/08 11:23:03;;;;;;;;;126.40;126.20;;;;;27.12;43.43;100640.50;6233290;22;44728;-91
2021/09/08 11:25:33;;;;;;;;;127.60;127.40;;;;;27.05;43.20;100618.66;6232368;22;44806;-91
2021/09/08 11:28:00;;;;;;;;;128.60;128.60;;;;;27.28;43.18;100650.22;6255643;22;46682;-91
2021/09/08 11:30:32;;;;;;;;;132.00;130.33;;;;;27.43;43.18;100668.34;6230541;22;44572;-91
2021/09/08 11:33:00;;;;;;;;;132.80;132.40;;;;;27.25;43.32;100640.56;6256628;22;44603;-91
2021/09/08 11:35:39;;;;;;;;;127.40;127.20;;;;;27.35;42.93;100651.09;6254793;22;44903;-90
2021/09/08 11:38:08;;;;;;;;;127.83;127.83;;;;;27.45;42.74;100647.13;6253264;22;45376;-92
2021/09/08 11:40:33;;;;;;;;;135.50;135.00;;;;;27.35;42.83;100622.94;6231494;22;44726;-90
2021/09/08 11:42:59;;;;;;;;;132.40;132.40;;;;;27.48;42.96;100625.72;6229546;22;44659;-91
2021/09/08 11:45:28;;;;;;;;;127.80;127.20;;;;;27.76;42.61;100667.59;6252192;22;44911;-91
2021/09/08 11:47:54;;;;;;;;;138.33;137.83;;;;;27.59;42.64;100618.78;6254273;22;45258;-92
2021/09/08 11:50:19;;;;;;;;;132.50;132.50;;;;;27.80;42.37;100640.69;6230791;22;44785;-92
2021/09/08 11:52:46;;;;;;;;;134.00;132.40;;;;;27.65;42.51;100608.97;6233649;22;44809;-91
2021/09/08 11:55:33;;;;;;;;;130.33;130.33;;;;;28.00;42.56;100657.97;6245084;22;44878;-91
2021/09/08 11:58:18;;;;;;;;;136.33;134.67;;;;;28.10;42.37;100656.72;6241146;22;45335;-90
2021/09/08 12:00:59;;;;;;;;;134.83;132.83;;;;;27.92;42.24;100613.63;6262373;22;44619;-90
2021/09/08 12:03:25;;;;;;;;;138.00;138.00;;;;;28.19;42.09;100646.38;6260952;22;44752;-90
2021/09/08 12:05:50;;;;;;;;;139.33;138.33;;;;;28.23;42.13;100634.84;6233356;22;44750;-91
2021/09/08 12:08:22;;;;;;;;;136.50;136.50;;;;;28.30;42.07;100631.28;6234658;22;44986;-91
2021/09/08 12:10:48;;;;;;;;;130.33;128.50;;;;;28.26;41.77;100620.75;6241215;22;44822;-90
2021/09/08 12:13:27;;;;;;;;;119.60;118.60;;;;;28.38;41.91;100633.78;6240361;22;44699;-91
2021/09/08 12:15:55;;;;;;;;;130.33;130.33;;;;;28.23;41.91;100601.22;6234645;22;44911;-91
2021/09/08 12:18:21;;;;;;;;;;;;;;;28.51;41.49;100639.25;6263319;22;45265;-91
2021/09/08 12:20:48;;;;;;;;;131.20;131.20;;;;;28.47;41.88;100629.81;6259059;22;44720;-91
2021/09/08 12:23:27;;;;;;;;;142.17;141.83;;;;;28.58;41.57;100631.03;6228943;22;44801;-90
2021/09/08 12:26:09;;;;;;;;;143.00;142.40;;;;;28.55;41.34;100612.31;6256889;22;44894;-91
2021/09/08 12:28:35;;;;;;;;;123.20;123.20;;;;;28.50;41.20;100602.03;6231650;22;45220;-91
2021/09/08 12:31:17;;;;;;;;;122.80;122.80;;;;;28.37;41.37;100570.09;6257399;22;44759;-91
2021/09/08 12:33:56;;;;;;;;;125.00;124.60;;;;;28.34;41.42;100559.59;6236885;22;44816;-91
2021/09/08 12:36:21;;;;;;;;;134.50;134.50;;;;;28.43;41.62;100570.28;6266732;22;44731;-91
2021/09/08 12:38:51;;;;;;;;;134.60;132.80;;;;;28.59;41.58;100601.81;6230512;22;45030;-91
2021/09/08 12:41:21;;;;;;;;;135.33;135.00;;;;;28.51;41.47;100578.25;6233632;22;45121;-92
2021/09/08 12:43:52;;;;;;;;;132.67;132.67;;;;;28.82;41.52;100603.19;6259168;22;44766;-90
2021/09/08 12:46:38;;;;;;;;;138.17;137.83;;;;;28.93;41.19;100608.00;6272563;22;44783;-90